Time;durP1;ratioP1;P1;durP2;ratioP2;P2;SDS_P1;SDS_P2;PMS_P1;PMS_P2;Temp;Humidity;BMP_temperature;BMP_pressure;BME280_temperature;BME280_humidity;BME280_pressure;Samples;Min_cycle;Max_cycle;Signal;HPM_P1;HPM_P2
2022/07/02 00:01:20;;;;;;;;;;;19.50;99.90;;;;;;5022491;28;20256;-63
2022/07/02 00:03:51;;;;;;;;;;;19.60;99.90;;;;;;5018851;28;20802;-63
2022/07/02 00:06:19;;;;;;;;;;;19.40;99.90;;;;;;5021142;28;20214;-62
2022/07/02 00:08:47;;;;;;;;;;;19.10;99.90;;;;;;5019697;28;20600;-62
2022/07/02 00:11:15;;;;;;;;;;;18.90;99.90;;;;;;5023099;28;20198;-62
2022/07/02 00:13:43;;;;;;;;;;;18.80;99.90;;;;;;5076933;22;20221;-71
2022/07/02 00:16:11;;;;;;;;;;;18.70;99.90;;;;;;5093554;28;20198;-70
2022/07/02 00:18:40;;;;;;;;;;;18.60;99.90;;;;;;5112232;27;20232;-71
2022/07/02 00:21:10;;;;;;;;;;;18.40;99.90;;;;;;5096726;28;20201;-72
2022/07/02 00:23:37;;;;;;;;;;;18.10;99.90;;;;;;5091723;28;20205;-73
2022/07/02 00:26:08;;;;;;;;;;;18.40;99.90;;;;;;5092607;28;20262;-72
2022/07/02 00:28:38;;;;;;;;;;;18.50;99.90;;;;;;5089883;28;20210;-73
2022/07/02 00:31:05;;;;;;;;;;;18.60;99.90;;;;;;5087683;28;20729;-71
2022/07/02 00:33:35;;;;;;;;;;;18.80;99.90;;;;;;5089779;28;20550;-71
2022/07/02 00:36:02;;;;;;;;;;;19.30;99.90;;;;;;5092147;28;20209;-71
2022/07/02 00:38:31;;;;;;;;;;;19.20;99.90;;;;;;5090356;28;20670;-73
2022/07/02 00:41:00;;;;;;;;;;;19.50;99.90;;;;;;5087952;28;20197;-73
2022/07/02 00:43:28;;;;;;;;;;;19.40;99.90;;;;;;5087690;28;20240;-73
2022/07/02 00:45:57;;;;;;;;;;;19.50;99.90;;;;;;5091010;28;20259;-68
2022/07/02 00:48:25;;;;;;;;;;;19.20;99.90;;;;;;5089148;28;20677;-71
2022/07/02 00:50:53;;;;;;;;;;;19.30;99.90;;;;;;5087547;28;20189;-72
2022/07/02 00:53:21;;;;;;;;;;;19.20;99.90;;;;;;5089070;28;20206;-72
2022/07/02 00:55:56;;;;;;;;;;;19.00;99.90;;;;;;5091648;28;20254;-72
2022/07/02 00:58:24;;;;;;;;;;;19.20;99.90;;;;;;5089162;28;20220;-72
2022/07/02 01:00:52;;;;;;;;;;;19.20;99.90;;;;;;5088936;28;20190;-71
2022/07/02 01:03:21;;;;;;;;;;;19.10;99.90;;;;;;5087857;28;20288;-72
2022/07/02 01:05:50;;;;;;;;;;;18.90;99.90;;;;;;5089541;28;20201;-71
2022/07/02 01:11:05;;;;;;;;;;;18.80;99.90;;;;;;5088093;28;20666;-71
2022/07/02 01:13:33;;;;;;;;;;;18.90;99.90;;;;;;5092273;28;20258;-71
2022/07/02 01:16:01;;;;;;;;;;;19.10;99.90;;;;;;5104001;28;20204;-73
2022/07/02 01:18:29;;;;;;;;;;;19.00;99.90;;;;;;5109541;28;20227;-72
2022/07/02 01:20:56;;;;;;;;;;;18.80;99.90;;;;;;5108878;28;20238;-73
2022/07/02 01:23:25;;;;;;;;;;;18.90;99.90;;;;;;5106605;28;20197;-73
2022/07/02 01:25:53;;;;;;;;;;;19.00;99.90;;;;;;5110716;28;20616;-72
2022/07/02 01:28:22;;;;;;;;;;;19.20;99.90;;;;;;5107766;28;20404;-71
2022/07/02 01:30:50;;;;;;;;;;;19.20;99.90;;;;;;5108972;28;20196;-70
2022/07/02 01:33:18;;;;;;;;;;;19.30;99.90;;;;;;5106944;28;20649;-71
2022/07/02 01:35:46;;;;;;;;;;;19.20;99.90;;;;;;5109295;28;20249;-70
2022/07/02 01:38:14;;;;;;;;;;;19.10;99.90;;;;;;5109833;28;20201;-70
2022/07/02 01:40:43;;;;;;;;;;;19.10;99.90;;;;;;5111840;28;20193;-70
2022/07/02 01:43:11;;;;;;;;;;;19.00;99.90;;;;;;5094863;28;20201;-70
2022/07/02 01:45:38;;;;;;;;;;;18.80;99.90;;;;;;5114777;28;20693;-68
2022/07/02 01:48:06;;;;;;;;;;;18.80;99.90;;;;;;5115376;28;20205;-69
2022/07/02 01:50:35;;;;;;;;;;;18.70;99.90;;;;;;5112474;28;20246;-71
2022/07/02 01:53:03;;;;;;;;;;;18.70;99.90;;;;;;5111965;28;20242;-71
2022/07/02 01:55:30;;;;;;;;;;;18.60;99.90;;;;;;5112317;28;20201;-70
2022/07/02 01:57:59;;;;;;;;;;;19.00;99.90;;;;;;5111726;28;20702;-70
2022/07/02 02:00:27;;;;;;;;;;;19.00;99.90;;;;;;5111459;28;20219;-71
2022/07/02 02:02:55;;;;;;;;;;;19.20;99.90;;;;;;5107602;28;20197;-70
2022/07/02 02:05:24;;;;;;;;;;;19.10;99.90;;;;;;5110587;28;20229;-72
2022/07/02 02:07:51;;;;;;;;;;;19.00;99.90;;;;;;5111675;28;20253;-70
2022/07/02 02:10:19;;;;;;;;;;;18.80;99.90;;;;;;5109248;28;20197;-71
2022/07/02 02:12:47;;;;;;;;;;;18.70;99.90;;;;;;5108882;28;20254;-74
2022/07/02 02:15:16;;;;;;;;;;;18.60;99.90;;;;;;5110948;28;20258;-75
2022/07/02 02:17:44;;;;;;;;;;;18.40;99.90;;;;;;5110203;28;20196;-74
2022/07/02 02:20:12;;;;;;;;;;;18.40;99.90;;;;;;5108671;28;20697;-74
2022/07/02 02:22:39;;;;;;;;;;;18.60;99.90;;;;;;5109663;28;20197;-74
2022/07/02 02:25:07;;;;;;;;;;;18.60;99.90;;;;;;5111217;28;20681;-74
2022/07/02 02:27:35;;;;;;;;;;;18.70;99.90;;;;;;5111220;28;20750;-69
2022/07/02 02:30:03;;;;;;;;;;;18.80;99.90;;;;;;5111967;28;20192;-71
2022/07/02 02:32:32;;;;;;;;;;;18.90;99.90;;;;;;5108507;28;20201;-71
2022/07/02 02:35:00;;;;;;;;;;;18.90;99.90;;;;;;5109255;28;20215;-71
2022/07/02 02:37:28;;;;;;;;;;;19.00;99.90;;;;;;5109119;28;20193;-71
2022/07/02 02:39:56;;;;;;;;;;;19.00;99.90;;;;;;5111932;28;20205;-72
2022/07/02 02:42:23;;;;;;;;;;;18.90;99.90;;;;;;5106384;28;20200;-71
2022/07/02 02:44:51;;;;;;;;;;;19.00;99.90;;;;;;5110002;28;20850;-72
2022/07/02 02:47:21;;;;;;;;;;;18.80;99.90;;;;;;5108433;28;20205;-71
2022/07/02 02:49:51;;;;;;;;;;;18.70;99.90;;;;;;5111559;28;20197;-72
2022/07/02 02:52:18;;;;;;;;;;;18.60;99.90;;;;;;5104980;28;20257;-71
2022/07/02 02:54:46;;;;;;;;;;;18.60;99.90;;;;;;5109523;27;20678;-73
2022/07/02 02:57:14;;;;;;;;;;;18.70;99.90;;;;;;5108239;27;20228;-72
2022/07/02 02:59:42;;;;;;;;;;;18.80;99.90;;;;;;5110038;28;20646;-73
2022/07/02 03:02:10;;;;;;;;;;;19.00;99.90;;;;;;5105553;28;20204;-73
2022/07/02 03:04:37;;;;;;;;;;;18.80;99.90;;;;;;5110109;28;20245;-73
2022/07/02 03:07:07;;;;;;;;;;;18.70;99.90;;;;;;5111033;28;20614;-72
2022/07/02 03:09:35;;;;;;;;;;;18.50;99.90;;;;;;5111014;28;20197;-74
2022/07/02 03:12:02;;;;;;;;;;;18.70;99.90;;;;;;5109558;28;20193;-71
2022/07/02 03:14:30;;;;;;;;;;;18.70;99.90;;;;;;5107343;28;20205;-72
2022/07/02 03:16:58;;;;;;;;;;;18.80;99.90;;;;;;5109551;28;20290;-70
2022/07/02 03:19:26;;;;;;;;;;;18.90;99.90;;;;;;5111871;28;20204;-70
2022/07/02 03:21:53;;;;;;;;;;;18.80;99.90;;;;;;5109586;28;20193;-71
2022/07/02 03:24:23;;;;;;;;;;;18.30;99.90;;;;;;5111912;27;20201;-71
2022/07/02 03:26:50;;;;;;;;;;;18.20;99.90;;;;;;5109692;28;20205;-71
2022/07/02 03:29:24;;;;;;;;;;;18.10;99.90;;;;;;5109331;28;20285;-71
2022/07/02 03:31:51;;;;;;;;;;;18.30;99.90;;;;;;5112290;28;20550;-67
2022/07/02 03:34:19;;;;;;;;;;;18.20;99.90;;;;;;5111838;28;20244;-67
2022/07/02 03:36:47;;;;;;;;;;;17.60;99.90;;;;;;5112098;28;20622;-69
2022/07/02 03:39:15;;;;;;;;;;;17.20;99.90;;;;;;5112589;28;20228;-69
2022/07/02 03:41:44;;;;;;;;;;;16.70;99.90;;;;;;5114140;27;20196;-71
2022/07/02 03:44:11;;;;;;;;;;;16.30;99.90;;;;;;5111787;28;20201;-71
2022/07/02 03:46:39;;;;;;;;;;;16.00;99.90;;;;;;5112817;28;21139;-71
2022/07/02 03:49:07;;;;;;;;;;;15.80;99.90;;;;;;5106841;28;20208;-70
2022/07/02 03:51:35;;;;;;;;;;;15.60;99.90;;;;;;5109137;28;20193;-71
2022/07/02 03:54:03;;;;;;;;;;;15.50;99.90;;;;;;5114696;27;20193;-70
2022/07/02 03:56:31;;;;;;;;;;;15.30;99.90;;;;;;5111920;27;20209;-70
2022/07/02 03:59:00;;;;;;;;;;;15.30;99.90;;;;;;5110865;28;20228;-71
2022/07/02 04:01:27;;;;;;;;;;;15.20;99.90;;;;;;5107246;28;20230;-68
2022/07/02 04:03:55;;;;;;;;;;;15.10;99.90;;;;;;5109105;28;20204;-70
2022/07/02 04:06:23;;;;;;;;;;;15.10;99.90;;;;;;5112025;27;20220;-71
2022/07/02 04:08:51;;;;;;;;;;;15.00;99.90;;;;;;5105766;28;20197;-70
2022/07/02 04:11:18;;;;;;;;;;;15.00;99.90;;;;;;5107012;28;20790;-69
2022/07/02 04:13:46;;;;;;;;;;;14.90;99.90;;;;;;5104957;28;20209;-70
2022/07/02 04:16:15;;;;;;;;;;;15.00;99.90;;;;;;5107692;28;20658;-70
2022/07/02 04:18:43;;;;;;;;;;;15.00;99.90;;;;;;5111788;28;20232;-70
2022/07/02 04:21:11;;;;;;;;;;;15.00;99.90;;;;;;5105071;28;20193;-70
2022/07/02 04:23:39;;;;;;;;;;;15.00;99.90;;;;;;5104930;27;20204;-69
2022/07/02 04:26:06;;;;;;;;;;;15.10;99.90;;;;;;5105692;28;20209;-69
2022/07/02 04:28:34;;;;;;;;;;;15.00;99.90;;;;;;5095593;28;20684;-68
2022/07/02 04:31:02;;;;;;;;;;;14.90;99.90;;;;;;5096114;28;20325;-67
2022/07/02 04:33:31;;;;;;;;;;;14.90;99.90;;;;;;5095656;27;20204;-68
2022/07/02 04:35:59;;;;;;;;;;;15.00;99.90;;;;;;5096661;27;20269;-67
2022/07/02 04:38:27;;;;;;;;;;;15.00;99.90;;;;;;5096676;28;20612;-68
2022/07/02 04:40:54;;;;;;;;;;;14.90;99.90;;;;;;5096005;27;20205;-68
2022/07/02 04:43:22;;;;;;;;;;;15.00;99.90;;;;;;5096770;27;20250;-68
2022/07/02 04:45:50;;;;;;;;;;;15.00;99.90;;;;;;5098092;27;20724;-68
2022/07/02 04:48:18;;;;;;;;;;;14.90;99.90;;;;;;5096731;28;20664;-68
2022/07/02 04:50:47;;;;;;;;;;;15.00;99.90;;;;;;5095920;27;20286;-68
2022/07/02 04:53:15;;;;;;;;;;;15.00;99.90;;;;;;5096768;27;20241;-68
2022/07/02 04:55:43;;;;;;;;;;;15.10;99.90;;;;;;5096851;27;20216;-68
2022/07/02 04:58:10;;;;;;;;;;;15.00;99.90;;;;;;5096284;28;20209;-68
2022/07/02 05:00:38;;;;;;;;;;;15.10;99.90;;;;;;5094528;28;20204;-68
2022/07/02 05:03:06;;;;;;;;;;;15.10;99.90;;;;;;5095945;28;20257;-68
2022/07/02 05:05:34;;;;;;;;;;;15.20;99.90;;;;;;5096173;27;20625;-67
2022/07/02 05:08:03;;;;;;;;;;;15.20;99.90;;;;;;5106002;27;20209;-68
2022/07/02 05:10:31;;;;;;;;;;;15.30;99.90;;;;;;5086812;28;20205;-67
2022/07/02 05:12:58;;;;;;;;;;;15.30;99.90;;;;;;5095965;28;20269;-67
2022/07/02 05:15:26;;;;;;;;;;;15.50;99.90;;;;;;5096210;27;20311;-68
2022/07/02 05:17:54;;;;;;;;;;;15.40;99.90;;;;;;5094650;28;20227;-68
2022/07/02 05:20:22;;;;;;;;;;;15.40;99.90;;;;;;5092857;28;20258;-68
2022/07/02 05:22:49;;;;;;;;;;;15.50;99.90;;;;;;5091653;28;20760;-68
2022/07/02 05:25:18;;;;;;;;;;;15.50;99.90;;;;;;5092194;28;20196;-68
2022/07/02 05:27:46;;;;;;;;;;;15.60;99.90;;;;;;5092986;28;20212;-68
2022/07/02 05:30:14;;;;;;;;;;;15.60;99.90;;;;;;5094361;28;20254;-68
2022/07/02 05:32:42;;;;;;;;;;;15.70;99.90;;;;;;5090739;28;20205;-68
2022/07/02 05:35:09;;;;;;;;;;;15.80;99.90;;;;;;5091941;28;20689;-68
2022/07/02 05:37:37;;;;;;;;;;;15.80;99.90;;;;;;5091788;28;20201;-68
2022/07/02 05:40:06;;;;;;;;;;;15.80;99.90;;;;;;5092238;28;20200;-68
2022/07/02 05:42:35;;;;;;;;;;;15.80;99.90;;;;;;5087924;28;21033;-68
2022/07/02 05:45:03;;;;;;;;;;;16.00;99.90;;;;;;5093563;28;20254;-69
2022/07/02 05:47:30;;;;;;;;;;;16.10;99.90;;;;;;5092203;28;20241;-68
2022/07/02 05:49:58;;;;;;;;;;;16.20;99.90;;;;;;5093087;28;20258;-68
2022/07/02 05:52:26;;;;;;;;;;;16.30;99.90;;;;;;5091388;28;20750;-68
2022/07/02 05:54:54;;;;;;;;;;;16.30;99.90;;;;;;5093709;28;20261;-68
2022/07/02 05:57:21;;;;;;;;;;;16.40;99.90;;;;;;5091466;28;20197;-68
2022/07/02 05:59:50;;;;;;;;;;;16.50;99.90;;;;;;5093279;28;20620;-70
2022/07/02 06:02:18;;;;;;;;;;;16.60;99.90;;;;;;5091206;28;20197;-65
2022/07/02 06:04:46;;;;;;;;;;;16.70;99.90;;;;;;5092328;28;20780;-65
2022/07/02 06:10:00;;;;;;;;;;;17.00;99.90;;;;;;5092165;28;20229;-65
2022/07/02 06:12:27;;;;;;;;;;;17.10;99.90;;;;;;5089271;28;20790;-66
2022/07/02 06:14:56;;;;;;;;;;;17.10;99.90;;;;;;5092958;28;20231;-66
2022/07/02 06:17:24;;;;;;;;;;;17.30;99.90;;;;;;5092373;28;20280;-66
2022/07/02 06:19:53;;;;;;;;;;;17.40;99.90;;;;;;5091857;28;20261;-66
2022/07/02 06:22:22;;;;;;;;;;;17.60;99.90;;;;;;5090719;28;20201;-66
2022/07/02 06:24:49;;;;;;;;;;;17.70;99.90;;;;;;5098263;27;20197;-66
2022/07/02 06:27:18;;;;;;;;;;;17.80;99.90;;;;;;5096417;28;20205;-66
2022/07/02 06:29:48;;;;;;;;;;;17.90;99.90;;;;;;5095941;28;20185;-67
2022/07/02 06:32:17;;;;;;;;;;;17.90;99.90;;;;;;5094807;28;20204;-66
2022/07/02 06:34:45;;;;;;;;;;;17.80;99.90;;;;;;5096861;28;20205;-66
2022/07/02 06:37:12;;;;;;;;;;;17.80;99.90;;;;;;5095970;28;20682;-66
2022/07/02 06:39:40;;;;;;;;;;;18.00;99.90;;;;;;5095362;28;20290;-66
2022/07/02 06:42:20;;;;;;;;;;;18.10;99.90;;;;;;5093848;28;20701;-67
2022/07/02 06:44:48;;;;;;;;;;;18.20;99.90;;;;;;5095457;27;20276;-66
2022/07/02 06:47:21;;;;;;;;;;;18.30;99.90;;;;;;5095665;27;20209;-67
2022/07/02 06:49:50;;;;;;;;;;;18.40;99.90;;;;;;5096994;28;20677;-67
2022/07/02 06:52:18;;;;;;;;;;;18.50;99.90;;;;;;5094493;28;20594;-67
2022/07/02 06:54:46;;;;;;;;;;;18.70;99.90;;;;;;5096088;28;21475;-66
2022/07/02 06:57:14;;;;;;;;;;;18.80;99.90;;;;;;5094765;27;20824;-67
2022/07/02 06:59:41;;;;;;;;;;;18.90;99.90;;;;;;5095387;28;20213;-67
2022/07/02 07:02:09;;;;;;;;;;;19.00;99.90;;;;;;5094094;27;20261;-68
2022/07/02 07:04:42;;;;;;;;;;;19.20;99.90;;;;;;5094623;28;20277;-66
2022/07/02 07:07:11;;;;;;;;;;;19.40;99.90;;;;;;5094311;27;20208;-66
2022/07/02 07:09:39;;;;;;;;;;;19.60;99.90;;;;;;5095916;28;20235;-67
2022/07/02 07:12:07;;;;;;;;;;;19.50;99.90;;;;;;5093721;27;20213;-66
2022/07/02 07:14:35;;;;;;;;;;;19.60;99.90;;;;;;5093714;28;20217;-67
2022/07/02 07:17:04;;;;;;;;;;;19.70;99.90;;;;;;5097467;28;20639;-67
2022/07/02 07:19:31;;;;;;;;;;;19.70;99.90;;;;;;5095027;28;20218;-67
2022/07/02 07:22:01;;;;;;;;;;;19.80;99.90;;;;;;5098964;22;20282;-65
2022/07/02 07:24:29;;;;;;;;;;;20.00;99.90;;;;;;5075740;28;20248;-66
2022/07/02 07:26:57;;;;;;;;;;;20.10;99.90;;;;;;5068894;28;20682;-66
2022/07/02 07:29:25;;;;;;;;;;;20.20;99.90;;;;;;5075122;28;20209;-66
2022/07/02 07:31:53;;;;;;;;;;;20.40;99.90;;;;;;5071477;28;20651;-66
2022/07/02 07:34:20;;;;;;;;;;;20.60;99.90;;;;;;5071431;28;20198;-65
2022/07/02 07:36:50;;;;;;;;;;;20.70;99.90;;;;;;5073073;28;20662;-66
2022/07/02 07:39:20;;;;;;;;;;;20.80;99.90;;;;;;5075786;28;20204;-65
2022/07/02 07:41:47;;;;;;;;;;;20.90;99.90;;;;;;5070887;28;20194;-64
2022/07/02 07:44:15;;;;;;;;;;;20.90;99.90;;;;;;5069525;28;20193;-66
2022/07/02 07:46:43;;;;;;;;;;;21.10;99.90;;;;;;5081248;28;20185;-64
2022/07/02 07:49:11;;;;;;;;;;;21.10;99.90;;;;;;5067169;28;20206;-64
2022/07/02 07:51:39;;;;;;;;;;;21.30;99.90;;;;;;5076452;28;20198;-65
2022/07/02 07:54:07;;;;;;;;;;;21.50;99.90;;;;;;5077288;28;20204;-65
2022/07/02 07:56:41;;;;;;;;;;;21.70;99.90;;;;;;5085799;28;20629;-64
2022/07/02 07:59:09;;;;;;;;;;;21.60;99.90;;;;;;5070932;28;20212;-64
2022/07/02 08:01:36;;;;;;;;;;;21.80;99.90;;;;;;5066374;28;20198;-64
2022/07/02 08:04:05;;;;;;;;;;;21.90;99.90;;;;;;5065934;28;20289;-65
2022/07/02 08:06:33;;;;;;;;;;;22.10;99.90;;;;;;5068908;28;20211;-64
2022/07/02 08:09:00;;;;;;;;;;;22.40;99.90;;;;;;5066077;28;20621;-65
2022/07/02 08:11:28;;;;;;;;;;;22.50;99.90;;;;;;5067527;28;20194;-65
2022/07/02 08:13:57;;;;;;;;;;;22.60;99.90;;;;;;5074243;28;20619;-65
2022/07/02 08:16:25;;;;;;;;;;;22.60;99.90;;;;;;5072159;28;20327;-65
2022/07/02 08:18:53;;;;;;;;;;;22.80;99.90;;;;;;5080926;28;20193;-65
2022/07/02 08:21:21;;;;;;;;;;;22.90;99.90;;;;;;5085082;28;20278;-65
2022/07/02 08:23:49;;;;;;;;;;;23.10;99.90;;;;;;5067547;28;20197;-65
2022/07/02 08:26:16;;;;;;;;;;;23.10;99.90;;;;;;5069980;28;20194;-65
2022/07/02 08:28:44;;;;;;;;;;;23.30;99.90;;;;;;5066055;28;20197;-65
2022/07/02 08:31:13;;;;;;;;;;;23.50;99.90;;;;;;5067008;28;20202;-65
2022/07/02 08:33:41;;;;;;;;;;;23.60;99.90;;;;;;5068171;28;20201;-65
2022/07/02 08:36:10;;;;;;;;;;;23.70;99.90;;;;;;5065404;28;20253;-65
2022/07/02 08:38:38;;;;;;;;;;;23.70;99.90;;;;;;5071036;28;20658;-65
2022/07/02 08:41:06;;;;;;;;;;;23.90;99.90;;;;;;5068042;28;20622;-66
2022/07/02 08:43:36;;;;;;;;;;;24.10;99.90;;;;;;5064038;28;21063;-65
2022/07/02 08:46:04;;;;;;;;;;;24.50;99.90;;;;;;5073585;28;22108;-65
2022/07/02 08:48:34;;;;;;;;;;;24.70;99.90;;;;;;5069356;28;20186;-65
2022/07/02 08:51:02;;;;;;;;;;;24.60;99.90;;;;;;5074915;28;20201;-65
2022/07/02 08:53:30;;;;;;;;;;;24.80;99.90;;;;;;5056901;28;20208;-65
2022/07/02 08:56:00;;;;;;;;;;;25.10;99.90;;;;;;5070096;28;20190;-65
2022/07/02 08:58:28;;;;;;;;;;;24.90;99.40;;;;;;5066691;28;20202;-65
2022/07/02 09:00:57;;;;;;;;;;;25.00;98.30;;;;;;5072320;28;20194;-64
2022/07/02 09:03:26;;;;;;;;;;;25.20;97.00;;;;;;5065503;28;20752;-65
2022/07/02 09:05:55;;;;;;;;;;;25.40;96.60;;;;;;5069168;28;20205;-64
2022/07/02 09:08:23;;;;;;;;;;;25.30;95.50;;;;;;5071908;28;20226;-65
2022/07/02 09:10:52;;;;;;;;;;;25.40;96.90;;;;;;5072345;28;20189;-65
2022/07/02 09:13:20;;;;;;;;;;;25.70;95.70;;;;;;5068944;28;20202;-66
2022/07/02 09:15:48;;;;;;;;;;;26.00;94.80;;;;;;5068564;28;20210;-65
2022/07/02 09:18:16;;;;;;;;;;;26.10;95.30;;;;;;5067523;28;20313;-65
2022/07/02 09:20:44;;;;;;;;;;;26.20;95.30;;;;;;5068688;28;20251;-65
2022/07/02 09:23:20;;;;;;;;;;;26.30;96.00;;;;;;5073078;28;20435;-64
2022/07/02 09:25:48;;;;;;;;;;;26.30;94.20;;;;;;5064931;28;20193;-65
2022/07/02 09:28:16;;;;;;;;;;;26.50;93.60;;;;;;5063086;28;20678;-65
2022/07/02 09:30:44;;;;;;;;;;;26.80;94.10;;;;;;5068078;28;20674;-65
2022/07/02 09:33:32;;;;;;;;;;;26.90;93.60;;;;;;5062499;28;20209;-65
2022/07/02 09:36:00;;;;;;;;;;;26.90;92.80;;;;;;5070055;28;20185;-66
2022/07/02 09:38:29;;;;;;;;;;;27.20;92.10;;;;;;5071138;28;20202;-66
2022/07/02 09:40:58;;;;;;;;;;;27.60;92.60;;;;;;5075564;28;20198;-66
2022/07/02 09:43:27;;;;;;;;;;;27.70;92.90;;;;;;5069162;28;20201;-66
2022/07/02 09:45:55;;;;;;;;;;;27.50;90.70;;;;;;5070410;28;20210;-66
2022/07/02 09:48:23;;;;;;;;;;;27.50;89.80;;;;;;5071044;28;20213;-66
2022/07/02 09:50:51;;;;;;;;;;;27.60;90.40;;;;;;5070435;28;20217;-66
2022/07/02 09:53:18;;;;;;;;;;;27.70;86.60;;;;;;5072249;28;20198;-66
2022/07/02 09:55:49;;;;;;;;;;;27.70;86.80;;;;;;5079224;28;20201;-67
2022/07/02 09:58:23;;;;;;;;;;;27.80;85.80;;;;;;5073693;28;20609;-66
2022/07/02 10:00:51;;;;;;;;;;;27.80;83.50;;;;;;5074699;28;20313;-66
2022/07/02 10:03:19;;;;;;;;;;;27.90;88.00;;;;;;5074149;28;20273;-66
2022/07/02 10:05:50;;;;;;;;;;;28.20;87.30;;;;;;5074702;28;20654;-67
2022/07/02 10:08:18;;;;;;;;;;;28.60;85.70;;;;;;5074951;28;20194;-66
2022/07/02 10:10:46;;;;;;;;;;;28.70;82.40;;;;;;5074275;28;20259;-66
2022/07/02 10:13:16;;;;;;;;;;;28.80;81.40;;;;;;5073966;28;20633;-66
2022/07/02 10:15:49;;;;;;;;;;;28.80;81.20;;;;;;5074232;28;20194;-66
2022/07/02 10:18:17;;;;;;;;;;;28.80;79.50;;;;;;5074339;28;20202;-66
2022/07/02 10:20:45;;;;;;;;;;;28.50;79.40;;;;;;5074323;28;20259;-66
2022/07/02 10:23:13;;;;;;;;;;;28.70;80.40;;;;;;5073180;28;20284;-66
2022/07/02 10:25:41;;;;;;;;;;;28.90;78.50;;;;;;5083005;28;20202;-66
2022/07/02 10:28:09;;;;;;;;;;;29.50;79.90;;;;;;5093723;28;20314;-66
2022/07/02 10:30:38;;;;;;;;;;;30.00;81.80;;;;;;5093499;28;20205;-66
2022/07/02 10:33:11;;;;;;;;;;;30.20;78.70;;;;;;5092632;28;20211;-66
2022/07/02 10:35:39;;;;;;;;;;;30.10;76.60;;;;;;5093612;28;20197;-66
2022/07/02 10:38:07;;;;;;;;;;;30.00;78.50;;;;;;5093705;28;20553;-66
2022/07/02 10:40:45;;;;;;;;;;;29.80;78.60;;;;;;5093306;28;20267;-66
2022/07/02 10:43:14;;;;;;;;;;;29.50;78.20;;;;;;5092542;28;20204;-66
2022/07/02 10:45:44;;;;;;;;;;;29.40;78.10;;;;;;5093012;28;20247;-66
2022/07/02 10:48:12;;;;;;;;;;;29.30;77.10;;;;;;5093164;28;20208;-67
2022/07/02 10:50:42;;;;;;;;;;;29.40;78.20;;;;;;5093142;28;20616;-66
2022/07/02 10:53:11;;;;;;;;;;;29.80;76.60;;;;;;5081226;28;20198;-66
2022/07/02 10:55:39;;;;;;;;;;;29.80;75.60;;;;;;5090060;28;20198;-66
2022/07/02 10:58:08;;;;;;;;;;;30.40;75.10;;;;;;5093098;28;20760;-66
2022/07/02 11:00:36;;;;;;;;;;;31.10;75.50;;;;;;5092930;28;20625;-66
2022/07/02 11:03:13;;;;;;;;;;;31.50;76.10;;;;;;5092661;28;20678;-66
2022/07/02 11:05:57;;;;;;;;;;;31.20;71.70;;;;;;5092540;28;20685;-66
2022/07/02 11:08:51;;;;;;;;;;;30.80;74.60;;;;;;5092523;28;20201;-66
2022/07/02 11:11:29;;;;;;;;;;;30.50;74.10;;;;;;5092652;28;20194;-66
2022/07/02 11:14:00;;;;;;;;;;;31.10;73.60;;;;;;5092086;28;20221;-66
2022/07/02 11:16:29;;;;;;;;;;;31.70;72.20;;;;;;5092744;28;20198;-66
2022/07/02 11:18:59;;;;;;;;;;;31.90;70.40;;;;;;5092800;28;20205;-66
2022/07/02 11:21:27;;;;;;;;;;;31.80;71.20;;;;;;5091928;28;20218;-66
2022/07/02 11:23:55;;;;;;;;;;;31.70;70.20;;;;;;5081211;28;20681;-67
2022/07/02 11:26:24;;;;;;;;;;;31.30;71.00;;;;;;5085053;28;20254;-66
2022/07/02 11:28:52;;;;;;;;;;;31.20;71.30;;;;;;5093048;28;20569;-66
2022/07/02 11:31:22;;;;;;;;;;;31.30;73.30;;;;;;5092235;28;20243;-66
2022/07/02 11:33:51;;;;;;;;;;;31.10;71.80;;;;;;5091811;28;20205;-66
2022/07/02 11:36:26;;;;;;;;;;;31.10;72.40;;;;;;5092514;28;20225;-66
2022/07/02 11:38:55;;;;;;;;;;;31.30;72.70;;;;;;5092878;28;20255;-66
2022/07/02 11:41:24;;;;;;;;;;;31.10;71.50;;;;;;5091800;28;20232;-66
2022/07/02 11:43:55;;;;;;;;;;;30.90;72.00;;;;;;5091390;28;20614;-66
2022/07/02 11:46:23;;;;;;;;;;;30.80;73.10;;;;;;5092172;28;20243;-66
2022/07/02 11:48:51;;;;;;;;;;;31.30;73.30;;;;;;5091963;28;20739;-66
2022/07/02 11:51:20;;;;;;;;;;;31.80;72.10;;;;;;5091736;28;20750;-66
2022/07/02 11:53:59;;;;;;;;;;;31.90;72.10;;;;;;5077582;28;20574;-67
2022/07/02 11:56:27;;;;;;;;;;;32.40;73.00;;;;;;5080877;28;20258;-66
2022/07/02 11:58:56;;;;;;;;;;;32.00;71.40;;;;;;5091969;28;20255;-66
2022/07/02 12:01:24;;;;;;;;;;;31.20;71.60;;;;;;5091907;28;20269;-66
2022/07/02 12:03:53;;;;;;;;;;;31.10;73.40;;;;;;5091146;28;20198;-66
2022/07/02 12:06:22;;;;;;;;;;;31.30;74.00;;;;;;5091692;28;20198;-66
2022/07/02 12:08:51;;;;;;;;;;;31.50;73.00;;;;;;5091480;28;20193;-66
2022/07/02 12:11:21;;;;;;;;;;;31.70;73.60;;;;;;5091509;28;20189;-66
2022/07/02 12:13:49;;;;;;;;;;;31.30;73.20;;;;;;5090958;28;20288;-66
2022/07/02 12:16:18;;;;;;;;;;;31.30;73.60;;;;;;5091525;28;20247;-66
2022/07/02 12:18:57;;;;;;;;;;;31.70;76.30;;;;;;5092029;28;20609;-66
2022/07/02 12:21:30;;;;;;;;;;;32.20;74.90;;;;;;5090571;28;20208;-66
2022/07/02 12:23:57;;;;;;;;;;;32.50;71.70;;;;;;5079077;28;20201;-66
2022/07/02 12:26:28;;;;;;;;;;;32.50;72.20;;;;;;5082837;28;20204;-66
2022/07/02 12:31:48;;;;;;;;;;;31.90;72.20;;;;;;5090913;28;20205;-66
2022/07/02 12:34:17;;;;;;;;;;;31.90;70.80;;;;;;5090818;28;20201;-66
2022/07/02 12:36:48;;;;;;;;;;;32.00;73.30;;;;;;5091228;28;20209;-66
2022/07/02 12:39:16;;;;;;;;;;;32.10;71.70;;;;;;5091153;28;20266;-66
2022/07/02 12:41:45;;;;;;;;;;;31.70;71.70;;;;;;5091137;28;20474;-66
2022/07/02 12:44:16;;;;;;;;;;;31.10;72.90;;;;;;5090521;28;20197;-66
2022/07/02 12:46:49;;;;;;;;;;;30.50;72.80;;;;;;5090790;28;20536;-66
2022/07/02 12:49:18;;;;;;;;;;;30.20;73.70;;;;;;5091134;28;20201;-66
2022/07/02 12:51:52;;;;;;;;;;;30.30;74.50;;;;;;5090161;28;20208;-66
2022/07/02 12:54:20;;;;;;;;;;;30.80;74.10;;;;;;5076289;28;20197;-66
2022/07/02 12:56:49;;;;;;;;;;;31.30;73.50;;;;;;5088510;28;20228;-66
2022/07/02 12:59:17;;;;;;;;;;;31.30;72.20;;;;;;5091013;28;20189;-66
2022/07/02 13:01:47;;;;;;;;;;;31.10;71.90;;;;;;5077198;28;20158;-65
2022/07/02 13:04:15;;;;;;;;;;;31.10;72.30;;;;;;5073112;28;20230;-67
2022/07/02 13:06:43;;;;;;;;;;;31.40;72.50;;;;;;5070008;28;20190;-67
2022/07/02 13:09:11;;;;;;;;;;;31.50;71.60;;;;;;5066659;28;20206;-66
2022/07/02 13:11:39;;;;;;;;;;;30.70;72.50;;;;;;5078318;28;20201;-65
2022/07/02 13:14:08;;;;;;;;;;;30.10;73.60;;;;;;5089938;28;20205;-65
2022/07/02 13:16:36;;;;;;;;;;;30.60;72.10;;;;;;5090417;28;20724;-66
2022/07/02 13:19:04;;;;;;;;;;;31.10;72.30;;;;;;5058047;28;20202;-66
2022/07/02 13:21:32;;;;;;;;;;;31.40;72.70;;;;;;5055208;28;20642;-67
2022/07/02 13:24:00;;;;;;;;;;;31.80;71.90;;;;;;5054191;28;20231;-66
2022/07/02 13:26:27;;;;;;;;;;;32.10;72.10;;;;;;5054909;28;20194;-67
2022/07/02 13:28:55;;;;;;;;;;;32.60;71.00;;;;;;5053475;28;20206;-66
2022/07/02 13:31:24;;;;;;;;;;;32.70;69.50;;;;;;5056227;28;20279;-66
2022/07/02 13:33:52;;;;;;;;;;;32.80;70.20;;;;;;5054568;28;20294;-66
2022/07/02 13:36:20;;;;;;;;;;;32.80;70.20;;;;;;5051554;28;20194;-68
2022/07/02 13:38:47;;;;;;;;;;;32.70;69.20;;;;;;5049794;28;20804;-66
2022/07/02 13:41:15;;;;;;;;;;;32.80;70.40;;;;;;5050905;28;20174;-66
2022/07/02 13:43:43;;;;;;;;;;;32.60;69.20;;;;;;5052818;28;20202;-67
2022/07/02 13:46:15;;;;;;;;;;;32.50;68.80;;;;;;5051857;28;21161;-66
2022/07/02 13:48:44;;;;;;;;;;;32.60;69.40;;;;;;5052269;28;20201;-69
2022/07/02 13:51:12;;;;;;;;;;;32.80;70.50;;;;;;5052291;28;20193;-65
2022/07/02 13:53:40;;;;;;;;;;;33.40;68.80;;;;;;5051338;28;20173;-68
2022/07/02 13:56:08;;;;;;;;;;;34.20;68.60;;;;;;5053753;28;20180;-68
2022/07/02 13:58:36;;;;;;;;;;;34.40;70.00;;;;;;5049700;28;20249;-66
2022/07/02 14:01:03;;;;;;;;;;;34.70;68.50;;;;;;5051372;28;20183;-69
2022/07/02 14:03:31;;;;;;;;;;;34.00;67.10;;;;;;5051073;28;20185;-66
2022/07/02 14:06:00;;;;;;;;;;;33.50;66.80;;;;;;5052889;28;20251;-68
2022/07/02 14:08:28;;;;;;;;;;;33.30;68.60;;;;;;5050396;28;20190;-67
2022/07/02 14:10:56;;;;;;;;;;;33.10;67.70;;;;;;5053397;28;20224;-68
2022/07/02 14:13:24;;;;;;;;;;;33.40;68.20;;;;;;5050842;28;20177;-68
2022/07/02 14:15:52;;;;;;;;;;;33.80;67.30;;;;;;5053883;28;21093;-67
2022/07/02 14:18:19;;;;;;;;;;;34.00;66.70;;;;;;5048787;28;20287;-66
2022/07/02 14:20:47;;;;;;;;;;;34.20;67.50;;;;;;5052671;28;20657;-66
2022/07/02 14:23:16;;;;;;;;;;;34.20;65.70;;;;;;5050256;28;20309;-67
2022/07/02 14:25:44;;;;;;;;;;;33.80;67.20;;;;;;5052378;28;20561;-67
2022/07/02 14:28:18;;;;;;;;;;;33.50;66.70;;;;;;5050519;28;20223;-66
2022/07/02 14:30:46;;;;;;;;;;;33.30;65.60;;;;;;5052885;28;20192;-65
2022/07/02 14:33:14;;;;;;;;;;;33.30;66.60;;;;;;5052951;28;20213;-67